Time;durP1;ratioP1;P1;durP2;ratioP2;P2;SDS_P1;SDS_P2;PMS_P1;PMS_P2;Temp;Humidity;BMP_temperature;BMP_pressure;BME280_temperature;BME280_humidity;BME280_pressure;Samples;Min_cycle;Max_cycle;Signal;HPM_P1;HPM_P2
2022/07/20 00:01:51;;;;;;;11.48;5.97;;;;;;;24.12;43.14;93086.88;2071712;69;20160;-70
2022/07/20 00:04:17;;;;;;;9.25;5.53;;;;;;;24.42;41.98;93094.53;2071996;69;20515;-70
2022/07/20 00:06:42;;;;;;;6.82;5.43;;;;;;;24.37;43.11;93099.50;2071563;69;20141;-69
2022/07/20 00:11:52;;;;;;;11.27;5.82;;;;;;;24.28;43.36;93100.78;2071665;69;20152;-70
2022/07/20 00:14:18;;;;;;;16.50;7.30;;;;;;;24.22;42.67;93094.94;2071609;69;21030;-71
2022/07/20 00:16:44;;;;;;;8.40;6.15;;;;;;;24.40;41.95;93109.63;2071613;69;20140;-72
2022/07/20 00:19:10;;;;;;;9.25;5.75;;;;;;;24.13;43.32;93099.09;2068427;69;20148;-72
2022/07/20 00:21:35;;;;;;;11.88;6.13;;;;;;;24.25;42.63;93091.41;2071419;69;20169;-71
2022/07/20 00:24:01;;;;;;;12.45;5.88;;;;;;;24.23;42.97;93096.38;2071478;69;20242;-70
2022/07/20 00:26:27;;;;;;;8.55;5.70;;;;;;;24.04;43.14;93090.34;2071642;69;20168;-71
2022/07/20 00:28:53;;;;;;;6.68;5.30;;;;;;;24.21;43.13;93094.22;2071720;69;20255;-71
2022/07/20 00:31:21;;;;;;;9.52;5.20;;;;;;;24.29;42.18;93091.47;2071658;69;20137;-70
2022/07/20 00:33:48;;;;;;;7.43;5.10;;;;;;;24.12;44.08;93086.88;2071664;69;20611;-71
2022/07/20 00:36:18;;;;;;;8.85;6.10;;;;;;;24.08;43.61;93087.53;2071515;69;20531;-70
2022/07/20 00:38:45;;;;;;;9.73;5.50;;;;;;;24.21;43.17;93094.22;2071566;69;20141;-71
2022/07/20 00:41:10;;;;;;;7.68;5.53;;;;;;;24.41;42.52;93090.22;2071501;69;20160;-71
2022/07/20 00:44:02;;;;;;;10.48;6.70;;;;;;;24.12;42.03;93086.88;2071327;69;20180;-71
2022/07/20 00:46:31;;;;;;;9.43;6.53;;;;;;;24.29;41.41;93085.00;2071321;69;20152;-71
2022/07/20 00:48:57;;;;;;;12.25;6.47;;;;;;;24.19;42.79;93084.81;2071320;69;20183;-72
2022/07/20 00:51:23;;;;;;;11.70;7.30;;;;;;;23.75;43.01;93089.13;2071200;69;20135;-71
2022/07/20 00:53:51;;;;;;;15.80;7.43;;;;;;;23.84;42.75;93081.38;2071364;69;20152;-72
2022/07/20 00:56:17;;;;;;;11.57;6.38;;;;;;;24.04;42.95;93075.94;2071352;69;20175;-71
2022/07/20 00:58:45;;;;;;;10.90;6.32;;;;;;;24.03;43.26;93074.50;2071301;69;20176;-72
2022/07/20 01:01:12;;;;;;;10.32;6.72;;;;;;;24.03;42.69;93088.88;2071249;69;20180;-72
2022/07/20 01:03:38;;;;;;;10.48;6.32;;;;;;;23.84;44.38;93082.09;2071176;69;20609;-70
2022/07/20 01:06:04;;;;;;;14.80;6.03;;;;;;;23.79;44.68;93089.19;2067942;69;20164;-70
2022/07/20 01:08:32;;;;;;;11.18;6.18;;;;;;;23.75;44.43;93094.16;2071625;69;20246;-72
2022/07/20 01:10:58;;;;;;;11.23;6.32;;;;;;;23.80;44.34;93084.16;2071321;69;20152;-69
2022/07/20 01:13:24;;;;;;;8.82;6.05;;;;;;;24.08;43.98;93084.66;2071531;69;20615;-69
2022/07/20 01:15:50;;;;;;;13.95;6.60;;;;;;;23.74;43.65;93084.06;2071599;69;20332;-70
2022/07/20 01:18:16;;;;;;;9.15;6.57;;;;;;;23.80;43.08;93087.03;2071627;69;20274;-71
2022/07/20 01:20:46;;;;;;;9.80;6.68;;;;;;;23.92;43.16;93083.66;2071682;69;20591;-70
2022/07/20 01:23:15;;;;;;;10.48;6.05;;;;;;;23.79;43.15;93079.84;2071707;69;20163;-71
2022/07/20 01:25:42;;;;;;;10.75;6.40;;;;;;;23.70;44.31;93084.00;2071705;69;20168;-71
2022/07/20 01:28:17;;;;;;;11.77;6.63;;;;;;;23.48;44.93;93084.28;2071571;69;20604;-71
2022/07/20 01:30:51;;;;;;;10.18;6.07;;;;;;;23.40;44.19;93081.97;2071691;69;20642;-72
2022/07/20 01:33:21;;;;;;;11.52;6.82;;;;;;;23.35;45.21;93080.44;2068246;69;20131;-72
2022/07/20 01:35:47;;;;;;;13.50;6.57;;;;;;;23.32;45.42;93079.69;2071411;69;20229;-75
2022/07/20 01:38:12;;;;;;;12.43;6.85;;;;;;;23.07;47.10;93081.34;2071403;69;20164;-70
2022/07/20 01:40:38;;;;;;;10.35;6.80;;;;;;;23.24;46.00;93078.81;2071342;69;20148;-72
2022/07/20 01:43:04;;;;;;;10.38;6.85;;;;;;;23.28;46.16;93076.00;2071753;69;20564;-70
2022/07/20 01:45:29;;;;;;;11.27;6.80;;;;;;;23.37;44.21;93074.00;2068243;69;20144;-72
2022/07/20 01:47:58;;;;;;;10.63;6.45;;;;;;;23.37;45.33;93076.88;2071476;69;20136;-72
2022/07/20 01:50:24;;;;;;;11.80;6.85;;;;;;;23.15;46.24;93080.06;2071577;69;20163;-70
2022/07/20 01:52:52;;;;;;;9.38;6.63;;;;;;;22.72;46.41;93084.88;2068011;69;20579;-71
2022/07/20 01:55:18;;;;;;;12.52;6.78;;;;;;;23.00;47.10;93079.78;2071579;69;20159;-71
2022/07/20 01:57:44;;;;;;;11.45;6.80;;;;;;;23.07;46.47;93083.50;2071414;69;20140;-72
2022/07/20 02:00:12;;;;;;;9.55;6.90;;;;;;;22.88;47.09;93084.50;2071658;69;20211;-71
2022/07/20 02:02:38;;;;;;;10.15;7.07;;;;;;;22.71;46.60;93089.88;2071544;69;20261;-71
2022/07/20 02:05:04;;;;;;;9.73;6.88;;;;;;;22.87;46.20;93085.94;2071424;69;20243;-71
2022/07/20 02:07:30;;;;;;;12.25;7.25;;;;;;;22.77;47.55;93086.41;2071323;69;20231;-70
2022/07/20 02:09:56;;;;;;;8.98;6.82;;;;;;;22.67;48.26;93086.19;2071551;69;20147;-71
2022/07/20 02:12:21;;;;;;;12.95;6.90;;;;;;;22.73;46.96;93089.22;2071403;69;20221;-71
2022/07/20 02:14:47;;;;;;;11.30;7.03;;;;;;;22.75;47.55;93083.50;2071244;69;20136;-71
2022/07/20 02:17:13;;;;;;;8.90;6.97;;;;;;;22.78;46.60;93085.03;2071496;69;20144;-71
2022/07/20 02:19:38;;;;;;;10.50;6.57;;;;;;;22.79;47.09;93080.72;2071716;69;20148;-71
2022/07/20 02:22:04;;;;;;;9.70;7.20;;;;;;;22.74;48.08;93084.94;2071473;69;20188;-71
2022/07/20 02:24:30;;;;;;;8.93;6.78;;;;;;;22.68;48.18;93094.13;2071699;69;20137;-71
2022/07/20 02:26:56;;;;;;;10.55;7.00;;;;;;;22.66;48.03;93085.47;2071452;69;20140;-70
2022/07/20 02:29:21;;;;;;;10.43;7.15;;;;;;;22.54;47.94;93082.31;2067990;69;20627;-70
2022/07/20 02:31:47;;;;;;;10.82;7.57;;;;;;;22.52;48.04;93085.16;2071215;69;20225;-69
2022/07/20 02:34:13;;;;;;;14.10;7.60;;;;;;;22.51;47.79;93087.31;2071556;69;20280;-69
2022/07/20 02:36:39;;;;;;;10.82;7.53;;;;;;;22.47;48.35;93080.75;2071111;69;20227;-70
2022/07/20 02:39:05;;;;;;;15.57;7.78;;;;;;;22.42;48.76;93084.94;2071473;69;20164;-70
2022/07/20 02:41:32;;;;;;;10.40;7.50;;;;;;;22.65;47.21;93095.50;2071284;69;20164;-71
2022/07/20 02:43:58;;;;;;;13.15;8.05;;;;;;;21.99;49.75;93081.03;2071139;69;20148;-74
2022/07/20 02:46:24;;;;;;;11.70;7.90;;;;;;;22.29;48.88;93078.91;2071588;69;20495;-71
2022/07/20 02:48:50;;;;;;;13.20;7.90;;;;;;;22.26;48.87;93088.88;2071711;69;20231;-71
2022/07/20 02:51:15;;;;;;;10.20;7.80;;;;;;;22.21;49.06;93086.59;2071377;69;20176;-72
2022/07/20 02:53:41;;;;;;;11.35;7.22;;;;;;;22.34;48.59;93094.06;2071788;69;20223;-70
2022/07/20 02:56:07;;;;;;;13.15;7.53;;;;;;;22.26;49.10;93091.75;2071664;69;20615;-71
2022/07/20 02:58:34;;;;;;;11.40;7.22;;;;;;;22.24;49.31;93091.69;2071785;69;20151;-72
2022/07/20 03:01:00;;;;;;;13.43;8.10;;;;;;;22.22;49.42;93091.66;2071242;69;20691;-70
2022/07/20 03:03:29;;;;;;;10.50;7.22;;;;;;;22.39;47.49;93095.63;2071748;69;20246;-72
2022/07/20 03:05:55;;;;;;;13.70;7.95;;;;;;;22.27;49.01;93089.63;2072110;69;20154;-70
2022/07/20 03:08:20;;;;;;;9.88;7.30;;;;;;;22.53;47.12;93098.81;2071883;69;20577;-72
2022/07/20 03:10:46;;;;;;;10.40;8.40;;;;;;;22.17;49.28;93090.09;2071844;69;20164;-71
2022/07/20 03:13:12;;;;;;;12.55;7.88;;;;;;;21.99;49.83;93093.25;2071908;69;20706;-71
2022/07/20 03:15:37;;;;;;;14.43;7.72;;;;;;;22.10;49.01;93094.22;2068485;69;20156;-72
2022/07/20 03:18:03;;;;;;;13.70;8.07;;;;;;;22.10;47.96;93097.06;2072041;69;20159;-74
2022/07/20 03:20:32;;;;;;;11.68;8.20;;;;;;;22.40;46.68;93094.22;2072099;69;20206;-73
2022/07/20 03:22:59;;;;;;;10.93;8.30;;;;;;;22.26;48.01;93093.88;2071863;69;20188;-75
2022/07/20 03:25:25;;;;;;;10.30;8.07;;;;;;;22.37;47.96;93101.31;2072201;69;20180;-72
2022/07/20 03:27:55;;;;;;;8.93;8.02;;;;;;;22.38;47.03;93104.91;2071961;69;20499;-71
2022/07/20 03:30:21;;;;;;;10.27;7.93;;;;;;;22.40;47.46;93104.94;2071956;69;20155;-72
2022/07/20 03:32:47;;;;;;;13.80;8.13;;;;;;;22.44;47.34;93107.91;2068668;69;20720;-72
2022/07/20 03:35:13;;;;;;;10.57;7.70;;;;;;;22.45;46.59;93113.00;2071930;69;20145;-72
2022/07/20 03:37:38;;;;;;;9.52;8.10;;;;;;;22.40;47.47;93116.44;2071756;69;20623;-72
2022/07/20 03:40:05;;;;;;;9.75;8.07;;;;;;;22.39;46.91;93114.97;2071804;69;20144;-71
2022/07/20 03:42:32;;;;;;;10.00;8.18;;;;;;;22.06;48.60;93123.50;2071822;69;20152;-72
2022/07/20 03:44:57;;;;;;;11.63;8.23;;;;;;;22.19;47.18;93113.09;2071804;69;20176;-72
2022/07/20 03:47:23;;;;;;;12.80;8.57;;;;;;;22.17;49.00;93115.16;2071779;69;20511;-71
2022/07/20 03:49:50;;;;;;;10.32;7.95;;;;;;;22.15;49.12;93115.84;2071757;69;20230;-71
2022/07/20 03:52:18;;;;;;;10.48;8.45;;;;;;;22.11;49.19;93112.13;2071631;69;20555;-72
2022/07/20 03:54:44;;;;;;;11.27;8.07;;;;;;;22.21;47.70;93109.53;2071773;69;20149;-72
2022/07/20 03:57:10;;;;;;;14.70;8.55;;;;;;;22.06;48.98;93122.78;2071775;69;20175;-74
2022/07/20 03:59:35;;;;;;;14.75;8.00;;;;;;;22.14;48.90;93125.88;2071990;69;20515;-72
2022/07/20 04:02:01;;;;;;;9.48;8.15;;;;;;;22.38;47.20;93119.25;2071726;69;20164;-71
2022/07/20 04:04:28;;;;;;;13.38;7.90;;;;;;;22.34;47.40;93117.03;2071768;69;20164;-71
2022/07/20 04:06:56;;;;;;;11.75;8.20;;;;;;;22.38;48.29;93117.13;2071684;69;20175;-72
2022/07/20 04:12:09;;;;;;;13.70;8.52;;;;;;;22.13;48.15;93112.94;2071892;69;20144;-71
2022/07/20 04:14:35;;;;;;;12.70;8.88;;;;;;;22.22;48.01;93120.34;2071582;69;20140;-71
2022/07/20 04:17:01;;;;;;;14.82;8.98;;;;;;;22.19;48.20;93121.69;2071653;69;20129;-70
2022/07/20 04:19:27;;;;;;;13.25;8.00;;;;;;;22.34;47.99;93122.75;2068327;69;20511;-70
2022/07/20 04:21:55;;;;;;;11.48;7.65;;;;;;;22.39;47.48;93124.31;2071526;69;20603;-70
2022/07/20 04:24:22;;;;;;;9.85;7.88;;;;;;;22.39;49.27;93117.84;2071620;69;20289;-71
2022/07/20 04:26:47;;;;;;;10.73;8.02;;;;;;;22.44;46.80;93123.00;2071639;69;20164;-70
2022/07/20 04:29:13;;;;;;;11.55;8.65;;;;;;;22.35;47.06;93124.22;2071576;69;20151;-70
2022/07/20 04:31:38;;;;;;;9.77;7.93;;;;;;;22.53;46.34;93130.38;2071417;69;20239;-70
2022/07/20 04:34:04;;;;;;;11.10;7.78;;;;;;;22.51;46.15;93133.19;2071503;69;20127;-72
2022/07/20 04:36:29;;;;;;;13.52;8.82;;;;;;;22.51;46.56;93130.34;2071368;69;20182;-71
2022/07/20 04:38:55;;;;;;;13.02;8.60;;;;;;;22.49;46.97;93124.53;2071663;69;20673;-73
2022/07/20 04:41:21;;;;;;;12.52;8.95;;;;;;;22.58;45.99;93134.78;2071524;69;20148;-71
2022/07/20 04:43:46;;;;;;;13.55;7.80;;;;;;;22.55;47.33;93139.03;2068145;69;20163;-70
2022/07/20 04:46:12;;;;;;;11.23;7.90;;;;;;;22.68;46.67;93136.44;2071750;69;20572;-71
2022/07/20 04:48:37;;;;;;;12.68;8.95;;;;;;;22.56;46.37;93143.34;2071727;69;20209;-71
2022/07/20 04:51:05;;;;;;;11.43;7.93;;;;;;;22.58;48.19;93139.81;2071748;69;20175;-72
2022/07/20 04:53:30;;;;;;;9.77;8.20;;;;;;;22.41;48.60;93140.84;2068214;69;20136;-73
2022/07/20 04:55:56;;;;;;;11.55;8.50;;;;;;;22.48;46.99;93133.84;2071731;69;20151;-71
2022/07/20 04:58:21;;;;;;;14.05;8.10;;;;;;;22.62;46.28;93139.16;2071817;69;20658;-71
2022/07/20 05:00:47;;;;;;;10.57;7.85;;;;;;;22.52;46.87;93131.78;2071655;69;20208;-72
2022/07/20 05:03:13;;;;;;;9.98;8.65;;;;;;;22.64;47.65;93136.38;2071616;69;20145;-69
2022/07/20 05:05:39;;;;;;;10.02;7.85;;;;;;;22.65;46.23;93138.53;2071632;69;20627;-69
2022/07/20 05:08:04;;;;;;;13.68;8.38;;;;;;;22.43;47.59;93138.03;2071365;69;20136;-73
2022/07/20 05:10:30;;;;;;;11.70;8.60;;;;;;;22.61;46.40;93140.59;2071906;69;20222;-69
2022/07/20 05:12:56;;;;;;;8.60;7.68;;;;;;;22.68;46.95;93139.31;2071786;69;20152;-70
2022/07/20 05:15:23;;;;;;;12.30;8.55;;;;;;;22.54;48.07;93134.72;2071755;69;20619;-70
2022/07/20 05:17:50;;;;;;;11.18;8.32;;;;;;;22.67;47.48;93144.31;2068459;69;20209;-69
2022/07/20 05:20:16;;;;;;;9.50;7.40;;;;;;;22.75;46.92;93146.66;2071992;69;20137;-70
2022/07/20 05:22:41;;;;;;;11.10;8.60;;;;;;;22.69;46.69;93140.78;2071631;69;20213;-69
2022/07/20 05:25:08;;;;;;;10.15;7.97;;;;;;;22.49;49.69;93147.47;2071734;69;20199;-69
2022/07/20 05:27:33;;;;;;;12.80;7.95;;;;;;;22.59;48.11;93152.75;2071724;69;20144;-69
2022/07/20 05:29:59;;;;;;;10.85;8.48;;;;;;;22.68;48.01;93153.66;2071919;69;20188;-68
2022/07/20 05:32:24;;;;;;;13.43;8.15;;;;;;;22.60;47.34;93150.63;2071733;69;20591;-71
2022/07/20 05:34:50;;;;;;;16.63;9.27;;;;;;;22.62;46.81;93151.38;2071842;69;20682;-69
2022/07/20 05:37:16;;;;;;;11.23;8.73;;;;;;;22.36;47.49;93153.63;2071610;69;20214;-69
2022/07/20 05:39:41;;;;;;;12.82;8.48;;;;;;;22.52;47.31;93151.88;2071812;69;20148;-74
2022/07/20 05:42:07;;;;;;;13.85;8.82;;;;;;;22.69;47.60;93149.38;2071930;69;20172;-69
2022/07/20 05:44:32;;;;;;;13.50;8.75;;;;;;;22.63;47.93;93149.22;2071694;69;20151;-69
2022/07/20 05:46:58;;;;;;;9.20;7.72;;;;;;;22.70;47.33;93153.72;2071812;69;20144;-68
2022/07/20 05:49:24;;;;;;;10.10;8.27;;;;;;;22.48;49.49;93148.19;2068356;69;20228;-69
2022/07/20 05:51:49;;;;;;;10.90;8.38;;;;;;;22.69;47.31;93147.25;2071618;69;20144;-70
2022/07/20 05:54:15;;;;;;;14.40;8.55;;;;;;;22.79;47.06;93144.59;2071667;69;20143;-70
2022/07/20 05:56:41;;;;;;;13.70;8.32;;;;;;;22.76;47.44;93136.63;2071726;69;20489;-70
2022/07/20 05:59:06;;;;;;;11.48;8.68;;;;;;;22.82;46.00;93137.50;2071669;69;20144;-69
2022/07/20 06:01:33;;;;;;;10.25;8.07;;;;;;;22.81;48.04;93147.50;2068342;69;20191;-69
2022/07/20 06:03:59;;;;;;;11.88;8.85;;;;;;;22.79;47.60;93149.59;2071638;69;20158;-69
2022/07/20 06:06:25;;;;;;;15.85;9.15;;;;;;;22.62;49.79;93142.03;2071554;69;20136;-70
2022/07/20 06:08:51;;;;;;;14.68;9.07;;;;;;;22.56;48.15;93139.75;2071622;69;20146;-69
2022/07/20 06:11:16;;;;;;;10.63;8.10;;;;;;;22.68;47.55;93136.44;2071576;69;20612;-69
2022/07/20 06:13:42;;;;;;;14.10;9.40;;;;;;;22.64;47.50;93139.97;2071756;69;20295;-71
2022/07/20 06:16:08;;;;;;;12.05;8.50;;;;;;;22.68;47.96;93139.31;2069657;69;20156;-69
2022/07/20 06:18:33;;;;;;;11.35;8.23;;;;;;;22.94;45.96;93133.44;2070780;69;20156;-68
2022/07/20 06:20:59;;;;;;;10.90;8.80;;;;;;;22.77;49.13;93133.09;2072150;69;20155;-70
2022/07/20 06:23:25;;;;;;;12.55;8.70;;;;;;;22.88;47.57;93139.78;2072010;69;20183;-70
2022/07/20 06:25:50;;;;;;;12.52;8.77;;;;;;;22.91;48.66;93144.19;2072097;69;20145;-68
2022/07/20 06:28:16;;;;;;;13.73;8.80;;;;;;;22.96;47.14;93137.09;2072229;69;20132;-68
2022/07/20 06:30:41;;;;;;;14.10;9.25;;;;;;;22.99;47.19;93141.47;2072234;69;20576;-71
2022/07/20 06:33:07;;;;;;;13.95;8.90;;;;;;;22.94;46.33;93142.78;2068768;69;20168;-70
2022/07/20 06:35:33;;;;;;;12.23;8.63;;;;;;;23.21;45.17;93143.34;2072117;69;20136;-70
2022/07/20 06:37:58;;;;;;;11.85;8.73;;;;;;;23.30;46.08;93150.72;2066015;69;20137;-68
2022/07/20 06:40:24;;;;;;;9.27;8.13;;;;;;;23.42;46.90;93148.09;2068892;69;20629;-68
2022/07/20 06:42:50;;;;;;;10.88;8.02;;;;;;;23.51;49.13;93155.47;2065400;69;20243;-69
2022/07/20 06:45:16;;;;;;;10.00;8.63;;;;;;;23.61;48.07;93143.44;2070342;69;20289;-71
2022/07/20 06:47:41;;;;;;;9.90;8.07;;;;;;;23.68;48.39;93142.16;2071720;69;20590;-70
2022/07/20 06:50:07;;;;;;;10.57;8.13;;;;;;;23.77;46.53;93143.03;2071949;69;20295;-70
2022/07/20 06:52:34;;;;;;;12.32;8.95;;;;;;;23.90;48.69;93149.75;2071873;69;20671;-70
2022/07/20 06:55:01;;;;;;;11.02;8.30;;;;;;;23.97;46.77;93140.53;2071856;69;20255;-72
2022/07/20 06:57:26;;;;;;;12.88;8.73;;;;;;;24.04;46.86;93139.22;2071978;69;20140;-71
2022/07/20 06:59:53;;;;;;;12.93;8.50;;;;;;;24.09;47.10;93134.25;2072134;69;20202;-69
2022/07/20 07:02:19;;;;;;;11.65;8.75;;;;;;;24.15;47.42;93137.25;2070851;69;20144;-68
2022/07/20 07:04:45;;;;;;;10.00;8.43;;;;;;;24.23;46.91;93128.75;2073040;69;20156;-69
2022/07/20 07:07:10;;;;;;;14.45;8.15;;;;;;;24.31;45.90;93131.75;2071730;69;20620;-71
2022/07/20 07:09:36;;;;;;;10.15;8.23;;;;;;;24.37;47.85;93127.56;2068457;69;20152;-69
2022/07/20 07:12:04;;;;;;;11.77;7.88;;;;;;;24.48;47.38;93120.56;2071796;69;20143;-69
2022/07/20 07:14:30;;;;;;;10.50;7.78;;;;;;;24.57;47.03;93125.00;2071459;69;20176;-69
2022/07/20 07:16:56;;;;;;;11.75;8.20;;;;;;;24.60;48.07;93114.97;2071969;69;20157;-69
2022/07/20 07:19:22;;;;;;;9.88;8.00;;;;;;;24.70;47.33;93114.41;2068554;69;20151;-73
2022/07/20 07:21:47;;;;;;;10.27;8.18;;;;;;;24.77;47.64;93110.19;2071864;69;20179;-69
2022/07/20 07:24:13;;;;;;;11.05;8.30;;;;;;;24.90;48.27;93111.09;2071810;69;20148;-71
2022/07/20 07:26:39;;;;;;;12.13;8.30;;;;;;;24.98;47.51;93111.19;2071841;69;20152;-71
2022/07/20 07:29:04;;;;;;;13.50;8.60;;;;;;;25.04;47.90;93099.75;2071824;69;20148;-70
2022/07/20 07:31:31;;;;;;;12.90;8.52;;;;;;;25.16;47.89;93102.09;2072544;69;20246;-70
2022/07/20 07:33:57;;;;;;;12.38;8.57;;;;;;;25.18;48.27;93102.84;2071598;69;20514;-72
2022/07/20 07:36:22;;;;;;;12.77;8.70;;;;;;;25.29;47.93;93107.31;2072491;69;20141;-70
2022/07/20 07:38:48;;;;;;;11.00;8.30;;;;;;;25.45;47.66;93098.13;2072050;69;20583;-72
2022/07/20 07:41:14;;;;;;;10.95;8.43;;;;;;;25.54;48.10;93093.19;2071966;69;20206;-69
2022/07/20 07:43:39;;;;;;;14.15;8.60;;;;;;;25.66;46.93;93093.31;2071707;69;20223;-69
2022/07/20 07:46:06;;;;;;;14.77;9.40;;;;;;;25.80;47.55;93090.59;2071655;69;20545;-70
2022/07/20 07:48:31;;;;;;;11.70;8.95;;;;;;;25.80;45.71;93081.22;2071869;69;20140;-69
2022/07/20 07:50:57;;;;;;;10.02;8.77;;;;;;;25.95;44.68;93091.47;2071785;69;20210;-70
2022/07/20 07:53:23;;;;;;;12.77;8.73;;;;;;;26.04;45.25;93080.72;2068412;69;20190;-69
2022/07/20 07:55:49;;;;;;;13.02;8.90;;;;;;;26.27;45.08;93082.38;2073516;69;20180;-69
2022/07/20 07:58:14;;;;;;;10.65;8.70;;;;;;;26.46;43.38;93073.88;2071244;69;20225;-70
2022/07/20 08:00:41;;;;;;;11.80;9.38;;;;;;;26.72;43.02;93079.84;2071146;69;20332;-69
2022/07/20 08:03:07;;;;;;;13.35;8.20;;;;;;;27.08;40.71;93081.50;2071555;69;20164;-70
2022/07/20 08:05:33;;;;;;;12.05;8.57;;;;;;;27.17;42.55;93076.47;2070374;69;20239;-71
2022/07/20 08:08:06;;;;;;;10.20;8.45;;;;;;;27.56;40.24;93071.59;2071646;69;20151;-74
2022/07/20 08:10:32;;;;;;;9.70;8.60;;;;;;;27.82;38.92;93073.84;2068528;69;20148;-71
2022/07/20 08:12:58;;;;;;;9.35;8.15;;;;;;;28.19;38.73;93071.72;2069168;69;20188;-72
2022/07/20 08:15:23;;;;;;;13.80;8.30;;;;;;;28.58;38.69;93071.72;2071658;69;20235;-72
2022/07/20 08:17:49;;;;;;;11.57;8.15;;;;;;;29.05;37.70;93063.00;2071587;69;20203;-74
2022/07/20 08:20:18;;;;;;;10.60;8.30;;;;;;;29.08;37.52;93064.41;2071832;69;20499;-70
2022/07/20 08:22:43;;;;;;;8.93;7.97;;;;;;;29.34;38.35;93061.44;2071409;69;20148;-76
2022/07/20 08:25:09;;;;;;;10.02;7.72;;;;;;;29.61;36.66;93059.16;2068509;69;20190;-74
2022/07/20 08:27:34;;;;;;;11.02;8.18;;;;;;;29.93;34.90;93063.34;2071907;69;20171;-71
2022/07/20 08:30:01;;;;;;;12.40;7.55;;;;;;;30.23;34.85;93061.72;2071788;69;20257;-71
2022/07/20 08:32:27;;;;;;;14.05;8.40;;;;;;;30.35;35.22;93050.00;2071734;69;20591;-71
2022/07/20 08:34:53;;;;;;;10.82;8.00;;;;;;;30.91;34.56;93058.97;2071715;69;20205;-71
2022/07/20 08:37:19;;;;;;;9.02;7.10;;;;;;;31.33;35.03;93060.72;2071153;69;20152;-70
2022/07/20 08:39:45;;;;;;;9.98;7.15;;;;;;;31.56;34.13;93056.06;2071858;69;20145;-71
2022/07/20 08:42:11;;;;;;;9.02;7.40;;;;;;;32.12;32.69;93056.78;2068286;69;20592;-76
2022/07/20 08:44:40;;;;;;;9.70;6.97;;;;;;;32.04;32.18;93045.25;2071817;69;20598;-71
2022/07/20 08:47:07;;;;;;;8.13;7.22;;;;;;;32.10;31.76;93053.16;2071861;69;20615;-73
2022/07/20 08:49:33;;;;;;;9.27;6.97;;;;;;;32.57;29.59;93050.25;2072126;69;20152;-68
2022/07/20 08:51:59;;;;;;;8.73;6.70;;;;;;;32.45;31.70;93046.84;2071964;69;20225;-70
2022/07/20 08:54:26;;;;;;;14.57;7.68;;;;;;;32.58;31.12;93045.91;2072189;69;20144;-70
2022/07/20 08:56:51;;;;;;;10.88;7.53;;;;;;;32.60;31.31;93042.94;2072233;69;20152;-73
2022/07/20 08:59:17;;;;;;;12.68;7.63;;;;;;;32.91;31.22;93041.72;2072001;69;20159;-71
2022/07/20 09:02:04;;;;;;;11.88;7.45;;;;;;;33.07;31.01;93032.66;2071812;69;20507;-71
2022/07/20 09:04:30;;;;;;;8.85;7.40;;;;;;;33.29;30.98;93037.34;2071564;69;20144;-69
2022/07/20 09:06:56;;;;;;;10.77;7.40;;;;;;;33.24;31.00;93036.69;2068015;69;20508;-72
2022/07/20 09:09:22;;;;;;;11.32;7.38;;;;;;;33.38;30.54;93035.69;2070872;69;20594;-69
2022/07/20 09:11:49;;;;;;;11.30;7.00;;;;;;;33.48;30.21;93031.88;2071928;69;20670;-69
2022/07/20 09:14:35;;;;;;;9.45;6.90;;;;;;;34.24;30.00;93033.91;2071652;69;20335;-69
2022/07/20 09:17:23;;;;;;;7.68;6.80;;;;;;;34.89;28.88;93033.03;2068592;69;20152;-72
2022/07/20 09:20:06;;;;;;;7.72;6.68;;;;;;;34.89;29.20;93035.25;2070536;69;20186;-74
2022/07/20 09:22:37;;;;;;;10.27;6.65;;;;;;;35.30;28.40;93031.25;2071424;69;20148;-71
2022/07/20 09:25:07;;;;;;;9.52;6.82;;;;;;;35.61;28.11;93031.84;2071597;69;20226;-71
2022/07/20 09:27:33;;;;;;;10.75;7.30;;;;;;;35.38;27.66;93025.19;2071728;69;20502;-73
2022/07/20 09:30:05;;;;;;;10.20;7.05;;;;;;;35.49;28.77;93016.84;2071298;69;20156;-71
2022/07/20 09:32:31;;;;;;;7.67;6.97;;;;;;;35.69;27.38;93018.47;2071733;69;20167;-75
2022/07/20 09:35:03;;;;;;;7.38;6.60;;;;;;;36.38;27.92;93011.22;2071654;69;20145;-71
2022/07/20 09:37:37;;;;;;;;;;;;;;;36.12;28.63;93009.84;2071629;69;20602;-71
2022/07/20 09:40:04;;;;;;;9.65;7.45;;;;;;;36.64;26.81;93006.00;2071690;69;20088;-71
2022/07/20 09:42:40;;;;;;;10.57;7.60;;;;;;;36.22;27.45;93013.97;2071627;69;20148;-71
2022/07/20 09:45:19;;;;;;;8.07;6.97;;;;;;;36.14;28.04;93003.91;2071148;69;20153;-71
2022/07/20 09:48:05;;;;;;;12.88;7.88;;;;;;;36.16;26.60;93005.38;2071916;69;20239;-71
2022/07/20 09:50:37;;;;;;;14.63;7.53;;;;;;;36.50;26.72;93000.63;2071792;69;20167;-70
2022/07/20 09:53:04;;;;;;;11.07;7.18;;;;;;;36.56;26.67;92995.28;2071367;69;20148;-71
2022/07/20 09:55:31;;;;;;;10.65;6.97;;;;;;;36.81;27.71;92995.16;2068117;69;20160;-72
2022/07/20 09:57:57;;;;;;;9.98;8.05;;;;;;;36.35;26.04;93000.34;2071415;69;20148;-71
2022/07/20 10:00:23;;;;;;;10.55;6.97;;;;;;;36.11;27.63;92982.06;2071148;69;20188;-70
2022/07/20 10:02:52;;;;;;;11.32;7.40;;;;;;;37.15;26.17;92986.69;2070868;69;20614;-72
2022/07/20 10:05:21;;;;;;;11.43;7.45;;;;;;;37.00;26.33;92986.47;2071674;69;20176;-71
2022/07/20 10:07:47;;;;;;;8.82;6.90;;;;;;;36.88;26.68;92984.66;2071466;69;20573;-70
2022/07/20 10:10:14;;;;;;;10.02;6.70;;;;;;;37.34;25.01;92986.75;2070935;69;20603;-71
2022/07/20 10:12:40;;;;;;;7.85;6.65;;;;;;;36.84;25.93;92978.22;2071496;69;20148;-71
2022/07/20 10:15:14;;;;;;;8.10;6.80;;;;;;;36.92;24.87;92974.31;2071210;69;20152;-71
2022/07/20 10:17:43;;;;;;;11.75;7.00;;;;;;;37.37;24.19;92970.50;2071416;69;20148;-71
2022/07/20 10:20:28;;;;;;;10.18;6.97;;;;;;;37.67;26.13;92962.09;2071562;69;20145;-70
2022/07/20 10:23:16;;;;;;;11.60;6.75;;;;;;;38.36;25.82;92959.41;2071495;69;20202;-72
2022/07/20 10:25:43;;;;;;;8.13;6.15;;;;;;;38.14;24.83;92961.00;2070663;69;20160;-70
2022/07/20 10:28:37;;;;;;;8.88;6.40;;;;;;;39.08;23.10;92957.84;2071124;69;20148;-70
2022/07/20 10:31:11;;;;;;;7.00;6.03;;;;;;;39.35;24.41;92956.69;2071705;69;20155;-71
2022/07/20 10:33:38;;;;;;;9.55;6.32;;;;;;;39.71;23.48;92954.34;2069484;69;20237;-71
2022/07/20 10:38:57;;;;;;;6.47;5.60;;;;;;;40.78;22.19;92941.88;2070206;69;20154;-70
2022/07/20 10:41:32;;;;;;;8.20;5.22;;;;;;;41.27;20.99;92938.66;2071525;69;20683;-70
2022/07/20 10:44:38;;;;;;;8.43;5.15;;;;;;;41.42;20.73;92945.25;2071406;69;20187;-71
2022/07/20 10:47:43;;;;;;;7.25;5.40;;;;;;;41.80;19.43;92938.81;2053740;70;20157;-71
2022/07/20 10:50:16;;;;;;;10.55;4.80;;;;;;;41.97;20.39;92933.44;2053383;70;20291;-70
2022/07/20 10:52:42;;;;;;;6.18;5.10;;;;;;;42.89;19.47;92934.16;2053540;70;20161;-71
2022/07/20 10:55:33;;;;;;;9.48;5.28;;;;;;;42.45;19.73;92931.53;2052815;70;20193;-71
2022/07/20 10:58:00;;;;;;;;;;;;;;;43.40;19.99;92937.03;2054126;70;20652;-70
2022/07/20 11:00:30;;;;;;;11.30;4.43;;;;;;;44.62;18.78;92938.25;2053878;70;20545;-69
2022/07/20 11:02:58;;;;;;;7.55;4.50;;;;;;;43.47;17.67;92920.31;2053711;69;20153;-69
2022/07/20 11:05:24;;;;;;;9.70;4.28;;;;;;;44.63;17.21;92912.97;2053661;70;20244;-70
2022/07/20 11:07:50;;;;;;;6.15;4.15;;;;;;;46.34;14.84;92924.19;2053597;69;20165;-71
2022/07/20 11:10:27;;;;;;;7.78;4.13;;;;;;;46.86;13.99;92915.88;2054132;70;20141;-70
2022/07/20 11:13:05;;;;;;;8.48;4.45;;;;;;;48.32;13.56;92920.97;2054495;70;20229;-71
2022/07/20 11:15:44;;;;;;;9.40;4.38;;;;;;;49.25;13.64;92911.84;2054049;69;20154;-71
2022/07/20 11:18:12;;;;;;;9.77;4.30;;;;;;;51.31;12.41;92923.53;2064764;69;20186;-70
2022/07/20 11:20:59;;;;;;;16.98;12.23;;;;;;;53.19;10.20;92916.75;2071612;69;20221;-72
2022/07/20 11:23:27;;;;;;;10.57;6.95;;;;;;;53.43;10.62;92911.28;2071817;69;20222;-70
2022/07/20 11:25:58;;;;;;;10.00;5.53;;;;;;;54.84;10.03;92917.69;2071870;69;20172;-71
2022/07/20 11:28:33;;;;;;;;;;;;;;;54.11;10.32;92905.03;2071920;69;20209;-73
2022/07/20 11:31:01;;;;;;;4.72;3.80;;;;;;;54.12;9.89;92903.44;2072239;69;20463;-73
2022/07/20 11:33:31;;;;;;;7.70;3.97;;;;;;;52.35;10.25;92891.97;2071536;69;20171;-69
2022/07/20 11:36:06;;;;;;;6.47;3.50;;;;;;;54.72;9.01;92891.88;2071986;69;20221;-72
2022/07/20 11:38:43;;;;;;;9.18;3.75;;;;;;;52.38;10.99;92875.16;2071750;69;20148;-79
2022/07/20 11:41:13;;;;;;;5.13;3.50;;;;;;;51.69;10.23;92864.53;2071066;69;20286;-73